sensor_id;sensor_type;location;lat;lon;timestamp;temperature;humidity
13472;DHT22;6808;49.444;11.034;2024-02-16T00:01:17;8.80;99.90
13472;DHT22;6808;49.444;11.034;2024-02-16T00:03:43;8.80;99.90
13472;DHT22;6808;49.444;11.034;2024-02-16T00:06:08;8.70;99.90
13472;DHT22;6808;49.444;11.034;2024-02-16T00:08:34;8.70;99.90
13472;DHT22;6808;49.444;11.034;2024-02-16T00:11:00;8.60;99.90
13472;DHT22;6808;49.444;11.034;2024-02-16T00:13:25;8.50;99.90
13472;DHT22;6808;49.444;11.034;2024-02-16T00:15:51;8.90;99.90
13472;DHT22;6808;49.444;11.034;2024-02-16T00:18:16;8.50;99.90
13472;DHT22;6808;49.444;11.034;2024-02-16T00:20:42;8.50;99.90
13472;DHT22;6808;49.444;11.034;2024-02-16T00:23:08;8.50;99.90
13472;DHT22;6808;49.444;11.034;2024-02-16T00:25:34;8.60;99.90
13472;DHT22;6808;49.444;11.034;2024-02-16T00:28:00;8.60;99.90
13472;DHT22;6808;49.444;11.034;2024-02-16T00:30:25;8.60;99.90
13472;DHT22;6808;49.444;11.034;2024-02-16T00:32:52;8.60;99.90
13472;DHT22;6808;49.444;11.034;2024-02-16T00:35:18;8.60;99.90
13472;DHT22;6808;49.444;11.034;2024-02-16T00:37:45;8.60;99.90
13472;DHT22;6808;49.444;11.034;2024-02-16T00:40:11;8.60;99.90
13472;DHT22;6808;49.444;11.034;2024-02-16T00:42:38;8.70;99.90
13472;DHT22;6808;49.444;11.034;2024-02-16T00:45:04;8.60;99.90
13472;DHT22;6808;49.444;11.034;2024-02-16T00:47:30;8.60;99.90
13472;DHT22;6808;49.444;11.034;2024-02-16T00:49:55;8.60;99.90
13472;DHT22;6808;49.444;11.034;2024-02-16T00:52:22;8.60;99.90
13472;DHT22;6808;49.444;11.034;2024-02-16T00:54:48;8.60;99.90
13472;DHT22;6808;49.444;11.034;2024-02-16T00:57:14;8.60;99.90
13472;DHT22;6808;49.444;11.034;2024-02-16T00:59:40;8.60;99.90
13472;DHT22;6808;49.444;11.034;2024-02-16T01:02:06;8.60;99.90
13472;DHT22;6808;49.444;11.034;2024-02-16T01:04:32;8.60;99.90
13472;DHT22;6808;49.444;11.034;2024-02-16T01:06:58;8.60;99.90
13472;DHT22;6808;49.444;11.034;2024-02-16T01:09:23;8.50;99.90
13472;DHT22;6808;49.444;11.034;2024-02-16T01:11:49;8.50;99.90
13472;DHT22;6808;49.444;11.034;2024-02-16T01:14:15;8.50;99.90
13472;DHT22;6808;49.444;11.034;2024-02-16T01:16:40;8.50;99.90
13472;DHT22;6808;49.444;11.034;2024-02-16T01:19:06;8.50;99.90
13472;DHT22;6808;49.444;11.034;2024-02-16T01:21:33;8.50;99.90
13472;DHT22;6808;49.444;11.034;2024-02-16T01:23:58;8.00;99.90
13472;DHT22;6808;49.444;11.034;2024-02-16T01:26:26;8.50;99.90
13472;DHT22;6808;49.444;11.034;2024-02-16T01:28:52;8.40;99.90
13472;DHT22;6808;49.444;11.034;2024-02-16T01:31:17;8.40;99.90
13472;DHT22;6808;49.444;11.034;2024-02-16T01:33:43;8.40;99.90
13472;DHT22;6808;49.444;11.034;2024-02-16T01:36:08;8.50;99.90
13472;DHT22;6808;49.444;11.034;2024-02-16T01:38:34;8.70;99.90
13472;DHT22;6808;49.444;11.034;2024-02-16T01:41:00;8.40;99.90
13472;DHT22;6808;49.444;11.034;2024-02-16T01:43:27;8.40;99.90
13472;DHT22;6808;49.444;11.034;2024-02-16T01:45:53;8.40;99.90
13472;DHT22;6808;49.444;11.034;2024-02-16T01:48:19;8.40;99.90
13472;DHT22;6808;49.444;11.034;2024-02-16T01:50:45;8.40;99.90
13472;DHT22;6808;49.444;11.034;2024-02-16T01:53:12;8.30;99.90
13472;DHT22;6808;49.444;11.034;2024-02-16T01:55:40;8.30;99.90
13472;DHT22;6808;49.444;11.034;2024-02-16T01:58:05;8.20;99.90
13472;DHT22;6808;49.444;11.034;2024-02-16T02:00:32;8.30;99.90
13472;DHT22;6808;49.444;11.034;2024-02-16T02:02:58;8.20;99.90
13472;DHT22;6808;49.444;11.034;2024-02-16T02:05:23;8.30;99.90
13472;DHT22;6808;49.444;11.034;2024-02-16T02:07:49;8.20;99.90
13472;DHT22;6808;49.444;11.034;2024-02-16T02:10:14;8.30;99.90
13472;DHT22;6808;49.444;11.034;2024-02-16T02:12:40;8.30;99.90
13472;DHT22;6808;49.444;11.034;2024-02-16T02:15:08;8.20;99.90
13472;DHT22;6808;49.444;11.034;2024-02-16T02:17:34;8.30;99.90
13472;DHT22;6808;49.444;11.034;2024-02-16T02:20:00;8.30;99.90
13472;DHT22;6808;49.444;11.034;2024-02-16T02:22:25;8.30;99.90
13472;DHT22;6808;49.444;11.034;2024-02-16T02:24:52;8.40;99.90
13472;DHT22;6808;49.444;11.034;2024-02-16T02:27:21;8.40;99.90
13472;DHT22;6808;49.444;11.034;2024-02-16T02:29:47;8.40;99.90
13472;DHT22;6808;49.444;11.034;2024-02-16T02:32:12;8.40;99.90
13472;DHT22;6808;49.444;11.034;2024-02-16T02:34:38;8.30;99.90
13472;DHT22;6808;49.444;11.034;2024-02-16T02:37:05;8.30;99.90
13472;DHT22;6808;49.444;11.034;2024-02-16T02:39:31;8.20;99.90
13472;DHT22;6808;49.444;11.034;2024-02-16T02:41:57;8.20;99.90
13472;DHT22;6808;49.444;11.034;2024-02-16T02:44:24;8.20;99.90
13472;DHT22;6808;49.444;11.034;2024-02-16T02:46:50;8.10;99.90
13472;DHT22;6808;49.444;11.034;2024-02-16T02:49:17;8.20;99.90
13472;DHT22;6808;49.444;11.034;2024-02-16T02:51:42;8.10;99.90
13472;DHT22;6808;49.444;11.034;2024-02-16T02:54:08;8.10;99.90
13472;DHT22;6808;49.444;11.034;2024-02-16T02:56:35;8.10;99.90
13472;DHT22;6808;49.444;11.034;2024-02-16T02:59:00;8.10;99.90
13472;DHT22;6808;49.444;11.034;2024-02-16T03:01:26;8.10;99.90
13472;DHT22;6808;49.444;11.034;2024-02-16T03:03:51;8.10;99.90
13472;DHT22;6808;49.444;11.034;2024-02-16T03:06:21;8.10;99.90
13472;DHT22;6808;49.444;11.034;2024-02-16T03:08:47;8.10;99.90
13472;DHT22;6808;49.444;11.034;2024-02-16T03:11:12;8.00;99.90
13472;DHT22;6808;49.444;11.034;2024-02-16T03:13:38;8.10;99.90
13472;DHT22;6808;49.444;11.034;2024-02-16T03:16:04;8.10;99.90
13472;DHT22;6808;49.444;11.034;2024-02-16T03:18:30;8.20;99.90
13472;DHT22;6808;49.444;11.034;2024-02-16T03:20:56;8.20;99.90
13472;DHT22;6808;49.444;11.034;2024-02-16T03:23:22;8.20;99.90
13472;DHT22;6808;49.444;11.034;2024-02-16T03:25:48;8.10;99.90
13472;DHT22;6808;49.444;11.034;2024-02-16T03:28:14;8.10;99.90
13472;DHT22;6808;49.444;11.034;2024-02-16T03:30:41;8.10;99.90
13472;DHT22;6808;49.444;11.034;2024-02-16T03:33:06;8.20;99.90
13472;DHT22;6808;49.444;11.034;2024-02-16T03:35:33;8.50;99.90
13472;DHT22;6808;49.444;11.034;2024-02-16T03:37:59;8.50;99.90
13472;DHT22;6808;49.444;11.034;2024-02-16T03:40:24;8.20;99.90
13472;DHT22;6808;49.444;11.034;2024-02-16T03:42:51;8.20;99.90
13472;DHT22;6808;49.444;11.034;2024-02-16T03:45:17;8.20;99.90
13472;DHT22;6808;49.444;11.034;2024-02-16T03:47:43;8.20;99.90
13472;DHT22;6808;49.444;11.034;2024-02-16T03:50:09;8.20;99.90
13472;DHT22;6808;49.444;11.034;2024-02-16T03:52:35;8.20;99.90
13472;DHT22;6808;49.444;11.034;2024-02-16T03:55:00;8.20;99.90
13472;DHT22;6808;49.444;11.034;2024-02-16T03:57:26;8.20;99.90
13472;DHT22;6808;49.444;11.034;2024-02-16T03:59:51;8.20;99.90
13472;DHT22;6808;49.444;11.034;2024-02-16T04:02:17;8.20;99.90
13472;DHT22;6808;49.444;11.034;2024-02-16T04:04:44;8.30;99.90
13472;DHT22;6808;49.444;11.034;2024-02-16T04:07:09;8.30;99.90
13472;DHT22;6808;49.444;11.034;2024-02-16T04:09:35;8.30;99.90
13472;DHT22;6808;49.444;11.034;2024-02-16T04:12:01;8.30;99.90
13472;DHT22;6808;49.444;11.034;2024-02-16T04:14:27;8.30;99.90
13472;DHT22;6808;49.444;11.034;2024-02-16T04:16:52;8.30;99.90
13472;DHT22;6808;49.444;11.034;2024-02-16T04:19:18;8.30;99.90
13472;DHT22;6808;49.444;11.034;2024-02-16T04:21:44;8.30;99.90
13472;DHT22;6808;49.444;11.034;2024-02-16T04:24:09;8.30;99.90
13472;DHT22;6808;49.444;11.034;2024-02-16T04:26:35;8.20;99.90
13472;DHT22;6808;49.444;11.034;2024-02-16T04:29:01;8.30;99.90
13472;DHT22;6808;49.444;11.034;2024-02-16T04:31:26;8.30;99.90
13472;DHT22;6808;49.444;11.034;2024-02-16T04:33:51;8.20;99.90
13472;DHT22;6808;49.444;11.034;2024-02-16T04:36:18;8.20;99.90
13472;DHT22;6808;49.444;11.034;2024-02-16T04:38:44;8.20;99.90
13472;DHT22;6808;49.444;11.034;2024-02-16T04:41:09;8.30;99.90
13472;DHT22;6808;49.444;11.034;2024-02-16T04:43:35;8.30;99.90
13472;DHT22;6808;49.444;11.034;2024-02-16T04:46:01;8.30;99.90
13472;DHT22;6808;49.444;11.034;2024-02-16T04:48:26;8.30;99.90
13472;DHT22;6808;49.444;11.034;2024-02-16T04:50:52;8.40;99.90
13472;DHT22;6808;49.444;11.034;2024-02-16T04:53:17;8.40;99.90
13472;DHT22;6808;49.444;11.034;2024-02-16T04:55:43;8.50;99.90
13472;DHT22;6808;49.444;11.034;2024-02-16T04:58:08;8.50;99.90
13472;DHT22;6808;49.444;11.034;2024-02-16T05:00:36;8.50;99.90
13472;DHT22;6808;49.444;11.034;2024-02-16T05:03:02;8.60;99.90
13472;DHT22;6808;49.444;11.034;2024-02-16T05:05:28;8.60;99.90
13472;DHT22;6808;49.444;11.034;2024-02-16T05:07:53;8.60;99.90
13472;DHT22;6808;49.444;11.034;2024-02-16T05:10:19;8.70;99.90
13472;DHT22;6808;49.444;11.034;2024-02-16T05:12:45;8.70;99.90
13472;DHT22;6808;49.444;11.034;2024-02-16T05:15:11;8.70;99.90
13472;DHT22;6808;49.444;11.034;2024-02-16T05:17:41;8.70;99.90
13472;DHT22;6808;49.444;11.034;2024-02-16T05:20:11;8.80;99.90
13472;DHT22;6808;49.444;11.034;2024-02-16T05:22:41;8.80;99.90
13472;DHT22;6808;49.444;11.034;2024-02-16T05:25:08;8.70;99.90
13472;DHT22;6808;49.444;11.034;2024-02-16T05:27:35;8.60;99.90
13472;DHT22;6808;49.444;11.034;2024-02-16T05:30:00;8.60;99.90
13472;DHT22;6808;49.444;11.034;2024-02-16T05:32:26;8.60;99.90
13472;DHT22;6808;49.444;11.034;2024-02-16T05:34:51;8.60;99.90
13472;DHT22;6808;49.444;11.034;2024-02-16T05:37:17;8.50;99.90
13472;DHT22;6808;49.444;11.034;2024-02-16T05:39:45;8.50;99.90
13472;DHT22;6808;49.444;11.034;2024-02-16T05:42:23;8.50;99.90
13472;DHT22;6808;49.444;11.034;2024-02-16T05:44:48;8.40;99.90
13472;DHT22;6808;49.444;11.034;2024-02-16T05:47:15;8.50;99.90
13472;DHT22;6808;49.444;11.034;2024-02-16T05:49:41;8.40;99.90
13472;DHT22;6808;49.444;11.034;2024-02-16T05:52:06;8.40;99.90
13472;DHT22;6808;49.444;11.034;2024-02-16T05:54:45;8.40;99.90
13472;DHT22;6808;49.444;11.034;2024-02-16T05:57:10;8.30;99.90
13472;DHT22;6808;49.444;11.034;2024-02-16T05:59:36;8.30;99.90
13472;DHT22;6808;49.444;11.034;2024-02-16T06:02:03;8.20;99.90
13472;DHT22;6808;49.444;11.034;2024-02-16T06:04:29;8.20;99.90
13472;DHT22;6808;49.444;11.034;2024-02-16T06:06:54;8.20;99.90
13472;DHT22;6808;49.444;11.034;2024-02-16T06:09:20;8.10;99.90
13472;DHT22;6808;49.444;11.034;2024-02-16T06:11:45;8.10;99.90
13472;DHT22;6808;49.444;11.034;2024-02-16T06:14:11;8.10;99.90
13472;DHT22;6808;49.444;11.034;2024-02-16T06:16:36;8.10;99.90
13472;DHT22;6808;49.444;11.034;2024-02-16T06:19:02;8.10;99.90
13472;DHT22;6808;49.444;11.034;2024-02-16T06:21:27;8.20;99.90
13472;DHT22;6808;49.444;11.034;2024-02-16T06:23:53;8.20;99.90
13472;DHT22;6808;49.444;11.034;2024-02-16T06:26:18;8.20;99.90
13472;DHT22;6808;49.444;11.034;2024-02-16T06:28:45;8.20;99.90
13472;DHT22;6808;49.444;11.034;2024-02-16T06:31:12;8.20;99.90
13472;DHT22;6808;49.444;11.034;2024-02-16T06:33:38;8.10;99.90
13472;DHT22;6808;49.444;11.034;2024-02-16T06:36:04;8.10;99.90
13472;DHT22;6808;49.444;11.034;2024-02-16T06:38:29;8.00;99.90
13472;DHT22;6808;49.444;11.034;2024-02-16T06:40:55;8.10;99.90
13472;DHT22;6808;49.444;11.034;2024-02-16T06:43:20;8.00;99.90
13472;DHT22;6808;49.444;11.034;2024-02-16T06:45:46;8.00;99.90
13472;DHT22;6808;49.444;11.034;2024-02-16T06:48:12;8.00;99.90
13472;DHT22;6808;49.444;11.034;2024-02-16T06:50:37;7.90;99.90
13472;DHT22;6808;49.444;11.034;2024-02-16T06:53:03;7.90;99.90
13472;DHT22;6808;49.444;11.034;2024-02-16T06:55:28;7.90;99.90
13472;DHT22;6808;49.444;11.034;2024-02-16T06:57:54;7.90;99.90
13472;DHT22;6808;49.444;11.034;2024-02-16T07:00:19;7.90;99.90
13472;DHT22;6808;49.444;11.034;2024-02-16T07:02:45;7.90;99.90
13472;DHT22;6808;49.444;11.034;2024-02-16T07:05:11;8.00;99.90
13472;DHT22;6808;49.444;11.034;2024-02-16T07:07:37;7.90;99.90
13472;DHT22;6808;49.444;11.034;2024-02-16T07:10:03;7.90;99.90
13472;DHT22;6808;49.444;11.034;2024-02-16T07:12:30;8.00;99.90
13472;DHT22;6808;49.444;11.034;2024-02-16T07:14:56;8.00;99.90
13472;DHT22;6808;49.444;11.034;2024-02-16T07:17:21;8.00;99.90
13472;DHT22;6808;49.444;11.034;2024-02-16T07:19:47;8.10;99.90
13472;DHT22;6808;49.444;11.034;2024-02-16T07:22:12;8.10;99.90
13472;DHT22;6808;49.444;11.034;2024-02-16T07:24:38;8.10;99.90
13472;DHT22;6808;49.444;11.034;2024-02-16T07:27:04;8.10;99.90
13472;DHT22;6808;49.444;11.034;2024-02-16T07:29:29;8.10;99.90
13472;DHT22;6808;49.444;11.034;2024-02-16T07:31:55;8.20;99.90
13472;DHT22;6808;49.444;11.034;2024-02-16T07:34:21;8.20;99.90
13472;DHT22;6808;49.444;11.034;2024-02-16T07:36:47;8.20;99.90
13472;DHT22;6808;49.444;11.034;2024-02-16T07:39:13;8.30;99.90
13472;DHT22;6808;49.444;11.034;2024-02-16T07:41:39;8.30;99.90
13472;DHT22;6808;49.444;11.034;2024-02-16T07:44:04;8.40;99.90
13472;DHT22;6808;49.444;11.034;2024-02-16T07:46:30;8.40;99.90
13472;DHT22;6808;49.444;11.034;2024-02-16T07:48:56;8.50;99.90
13472;DHT22;6808;49.444;11.034;2024-02-16T07:51:21;8.50;99.90
13472;DHT22;6808;49.444;11.034;2024-02-16T07:53:47;8.50;99.90
13472;DHT22;6808;49.444;11.034;2024-02-16T07:56:13;8.60;99.90
13472;DHT22;6808;49.444;11.034;2024-02-16T07:58:41;8.60;99.90
13472;DHT22;6808;49.444;11.034;2024-02-16T08:01:08;8.70;99.90
13472;DHT22;6808;49.444;11.034;2024-02-16T08:03:35;8.70;99.90
13472;DHT22;6808;49.444;11.034;2024-02-16T08:06:01;8.70;99.90
13472;DHT22;6808;49.444;11.034;2024-02-16T08:08:26;9.00;99.90
13472;DHT22;6808;49.444;11.034;2024-02-16T08:10:52;10.20;99.90
13472;DHT22;6808;49.444;11.034;2024-02-16T08:13:18;8.80;99.90
13472;DHT22;6808;49.444;11.034;2024-02-16T08:15:43;8.90;99.90
13472;DHT22;6808;49.444;11.034;2024-02-16T08:18:09;8.90;99.90
13472;DHT22;6808;49.444;11.034;2024-02-16T08:20:37;9.00;99.90
13472;DHT22;6808;49.444;11.034;2024-02-16T08:23:02;9.00;99.90
13472;DHT22;6808;49.444;11.034;2024-02-16T08:25:28;9.00;99.90
13472;DHT22;6808;49.444;11.034;2024-02-16T08:27:56;9.10;99.90
13472;DHT22;6808;49.444;11.034;2024-02-16T08:30:21;9.10;99.90
13472;DHT22;6808;49.444;11.034;2024-02-16T08:32:47;9.10;99.90
13472;DHT22;6808;49.444;11.034;2024-02-16T08:35:13;9.20;99.90
13472;DHT22;6808;49.444;11.034;2024-02-16T08:37:40;9.20;99.90
13472;DHT22;6808;49.444;11.034;2024-02-16T08:40:06;9.30;99.90
13472;DHT22;6808;49.444;11.034;2024-02-16T08:42:31;9.30;99.90
13472;DHT22;6808;49.444;11.034;2024-02-16T08:44:57;9.30;99.90
13472;DHT22;6808;49.444;11.034;2024-02-16T08:47:25;9.30;99.90
13472;DHT22;6808;49.444;11.034;2024-02-16T08:49:51;9.40;99.90
13472;DHT22;6808;49.444;11.034;2024-02-16T08:52:16;9.40;99.90
13472;DHT22;6808;49.444;11.034;2024-02-16T08:54:46;9.50;99.90
13472;DHT22;6808;49.444;11.034;2024-02-16T08:57:12;9.50;99.90
13472;DHT22;6808;49.444;11.034;2024-02-16T08:59:37;9.50;99.90
13472;DHT22;6808;49.444;11.034;2024-02-16T09:02:03;9.60;99.90
13472;DHT22;6808;49.444;11.034;2024-02-16T09:04:30;9.60;99.90
13472;DHT22;6808;49.444;11.034;2024-02-16T09:06:56;9.70;99.90
13472;DHT22;6808;49.444;11.034;2024-02-16T09:09:21;9.70;99.90
13472;DHT22;6808;49.444;11.034;2024-02-16T09:11:48;9.80;99.90
13472;DHT22;6808;49.444;11.034;2024-02-16T09:14:13;9.90;99.90
13472;DHT22;6808;49.444;11.034;2024-02-16T09:16:39;9.90;99.90
13472;DHT22;6808;49.444;11.034;2024-02-16T09:19:05;10.00;99.90
13472;DHT22;6808;49.444;11.034;2024-02-16T09:21:31;9.70;99.90
13472;DHT22;6808;49.444;11.034;2024-02-16T09:23:56;10.10;99.90
13472;DHT22;6808;49.444;11.034;2024-02-16T09:26:26;10.10;99.90
13472;DHT22;6808;49.444;11.034;2024-02-16T09:28:56;10.20;99.90
13472;DHT22;6808;49.444;11.034;2024-02-16T09:31:21;10.30;99.90
13472;DHT22;6808;49.444;11.034;2024-02-16T09:33:47;10.50;99.90
13472;DHT22;6808;49.444;11.034;2024-02-16T09:36:12;10.60;99.90
13472;DHT22;6808;49.444;11.034;2024-02-16T09:38:38;10.70;99.90
13472;DHT22;6808;49.444;11.034;2024-02-16T09:41:03;10.80;99.90
13472;DHT22;6808;49.444;11.034;2024-02-16T09:43:30;10.90;99.90
13472;DHT22;6808;49.444;11.034;2024-02-16T09:45:56;10.90;99.90
13472;DHT22;6808;49.444;11.034;2024-02-16T09:48:24;11.00;99.90
13472;DHT22;6808;49.444;11.034;2024-02-16T09:50:50;11.00;99.90
13472;DHT22;6808;49.444;11.034;2024-02-16T09:53:17;11.00;99.90
13472;DHT22;6808;49.444;11.034;2024-02-16T09:55:44;11.10;99.90
13472;DHT22;6808;49.444;11.034;2024-02-16T09:58:10;11.10;99.90
13472;DHT22;6808;49.444;11.034;2024-02-16T10:00:42;11.10;99.90
13472;DHT22;6808;49.444;11.034;2024-02-16T10:03:07;11.10;99.90
13472;DHT22;6808;49.444;11.034;2024-02-16T10:05:35;11.20;99.90
13472;DHT22;6808;49.444;11.034;2024-02-16T10:08:11;11.20;99.90
13472;DHT22;6808;49.444;11.034;2024-02-16T10:10:37;11.20;99.90
13472;DHT22;6808;49.444;11.034;2024-02-16T10:13:03;11.20;99.90
13472;DHT22;6808;49.444;11.034;2024-02-16T10:15:30;11.20;99.90
13472;DHT22;6808;49.444;11.034;2024-02-16T10:18:01;11.30;99.90
13472;DHT22;6808;49.444;11.034;2024-02-16T10:20:27;11.40;99.90
13472;DHT22;6808;49.444;11.034;2024-02-16T10:23:07;11.40;99.90
13472;DHT22;6808;49.444;11.034;2024-02-16T10:25:40;11.40;99.90
13472;DHT22;6808;49.444;11.034;2024-02-16T10:28:08;11.50;99.90
13472;DHT22;6808;49.444;11.034;2024-02-16T10:30:36;11.50;99.90
13472;DHT22;6808;49.444;11.034;2024-02-16T10:33:03;11.50;99.90
13472;DHT22;6808;49.444;11.034;2024-02-16T10:35:29;11.60;99.90
13472;DHT22;6808;49.444;11.034;2024-02-16T10:37:56;11.60;99.90
13472;DHT22;6808;49.444;11.034;2024-02-16T10:40:23;11.60;99.90
13472;DHT22;6808;49.444;11.034;2024-02-16T10:42:50;11.70;99.90
13472;DHT22;6808;49.444;11.034;2024-02-16T10:45:18;11.70;99.90
13472;DHT22;6808;49.444;11.034;2024-02-16T10:47:45;11.70;99.90
13472;DHT22;6808;49.444;11.034;2024-02-16T10:50:12;11.70;99.90
13472;DHT22;6808;49.444;11.034;2024-02-16T10:52:40;11.70;99.90
13472;DHT22;6808;49.444;11.034;2024-02-16T10:55:07;11.80;99.90
13472;DHT22;6808;49.444;11.034;2024-02-16T10:57:35;11.70;99.90
13472;DHT22;6808;49.444;11.034;2024-02-16T11:00:08;11.80;99.90
13472;DHT22;6808;49.444;11.034;2024-02-16T11:02:54;11.80;99.90
13472;DHT22;6808;49.444;11.034;2024-02-16T11:05:34;11.80;99.90
13472;DHT22;6808;49.444;11.034;2024-02-16T11:08:04;11.80;99.90
13472;DHT22;6808;49.444;11.034;2024-02-16T11:10:30;11.90;99.90
13472;DHT22;6808;49.444;11.034;2024-02-16T11:13:03;11.80;99.90
13472;DHT22;6808;49.444;11.034;2024-02-16T11:15:34;11.90;99.90
13472;DHT22;6808;49.444;11.034;2024-02-16T11:18:02;11.90;99.90
13472;DHT22;6808;49.444;11.034;2024-02-16T11:20:28;11.90;99.90
13472;DHT22;6808;49.444;11.034;2024-02-16T11:22:53;11.90;99.90
13472;DHT22;6808;49.444;11.034;2024-02-16T11:25:31;11.90;99.90
13472;DHT22;6808;49.444;11.034;2024-02-16T11:27:58;11.90;99.90
13472;DHT22;6808;49.444;11.034;2024-02-16T11:30:23;11.90;99.90
13472;DHT22;6808;49.444;11.034;2024-02-16T11:32:51;11.90;99.90
13472;DHT22;6808;49.444;11.034;2024-02-16T11:35:17;11.90;99.90
13472;DHT22;6808;49.444;11.034;2024-02-16T11:37:43;11.90;99.90
13472;DHT22;6808;49.444;11.034;2024-02-16T11:40:12;12.00;99.90
13472;DHT22;6808;49.444;11.034;2024-02-16T11:42:37;12.00;99.90
13472;DHT22;6808;49.444;11.034;2024-02-16T11:45:03;12.00;99.90
13472;DHT22;6808;49.444;11.034;2024-02-16T11:47:29;12.00;99.90
13472;DHT22;6808;49.444;11.034;2024-02-16T11:50:05;12.10;99.90
13472;DHT22;6808;49.444;11.034;2024-02-16T11:52:31;12.10;99.90
13472;DHT22;6808;49.444;11.034;2024-02-16T11:54:57;12.10;99.90
13472;DHT22;6808;49.444;11.034;2024-02-16T11:57:26;12.10;99.90
13472;DHT22;6808;49.444;11.034;2024-02-16T11:59:52;12.10;99.90
13472;DHT22;6808;49.444;11.034;2024-02-16T12:02:19;12.20;99.90
13472;DHT22;6808;49.444;11.034;2024-02-16T12:04:46;12.20;99.90
13472;DHT22;6808;49.444;11.034;2024-02-16T12:07:13;12.20;99.90
13472;DHT22;6808;49.444;11.034;2024-02-16T12:09:39;12.60;99.90
13472;DHT22;6808;49.444;11.034;2024-02-16T12:12:06;12.20;99.90
13472;DHT22;6808;49.444;11.034;2024-02-16T12:14:32;12.20;99.90
13472;DHT22;6808;49.444;11.034;2024-02-16T12:16:58;12.30;99.90
13472;DHT22;6808;49.444;11.034;2024-02-16T12:19:25;12.30;99.90
13472;DHT22;6808;49.444;11.034;2024-02-16T12:21:55;12.30;99.90
13472;DHT22;6808;49.444;11.034;2024-02-16T12:24:22;12.30;99.90
13472;DHT22;6808;49.444;11.034;2024-02-16T12:26:48;12.40;99.90
13472;DHT22;6808;49.444;11.034;2024-02-16T12:29:14;12.40;99.90
13472;DHT22;6808;49.444;11.034;2024-02-16T12:31:42;12.40;99.90
13472;DHT22;6808;49.444;11.034;2024-02-16T12:34:09;12.50;99.90
13472;DHT22;6808;49.444;11.034;2024-02-16T12:36:36;12.50;99.90
13472;DHT22;6808;49.444;11.034;2024-02-16T12:39:02;12.50;99.90
13472;DHT22;6808;49.444;11.034;2024-02-16T12:41:30;12.60;99.90
13472;DHT22;6808;49.444;11.034;2024-02-16T12:43:55;12.60;99.90
13472;DHT22;6808;49.444;11.034;2024-02-16T12:46:21;12.70;99.90
13472;DHT22;6808;49.444;11.034;2024-02-16T12:48:46;12.70;99.90
13472;DHT22;6808;49.444;11.034;2024-02-16T12:51:12;12.70;99.90
13472;DHT22;6808;49.444;11.034;2024-02-16T12:53:37;12.70;99.90
13472;DHT22;6808;49.444;11.034;2024-02-16T12:56:10;12.70;99.90
13472;DHT22;6808;49.444;11.034;2024-02-16T12:58:36;12.70;99.90
13472;DHT22;6808;49.444;11.034;2024-02-16T13:01:06;12.70;99.90
13472;DHT22;6808;49.444;11.034;2024-02-16T13:03:35;12.80;99.90
13472;DHT22;6808;49.444;11.034;2024-02-16T13:06:02;12.80;99.90
13472;DHT22;6808;49.444;11.034;2024-02-16T13:08:29;12.80;99.90
13472;DHT22;6808;49.444;11.034;2024-02-16T13:10:55;12.80;99.90
13472;DHT22;6808;49.444;11.034;2024-02-16T13:13:21;12.90;99.90
13472;DHT22;6808;49.444;11.034;2024-02-16T13:15:47;13.40;99.90
13472;DHT22;6808;49.444;11.034;2024-02-16T13:18:16;13.10;99.90
13472;DHT22;6808;49.444;11.034;2024-02-16T13:20:43;13.20;99.90
13472;DHT22;6808;49.444;11.034;2024-02-16T13:23:10;13.40;99.90
13472;DHT22;6808;49.444;11.034;2024-02-16T13:25:36;13.50;99.90
13472;DHT22;6808;49.444;11.034;2024-02-16T13:28:02;13.60;99.90
13472;DHT22;6808;49.444;11.034;2024-02-16T13:30:28;13.60;99.90
13472;DHT22;6808;49.444;11.034;2024-02-16T13:32:54;13.70;99.90
13472;DHT22;6808;49.444;11.034;2024-02-16T13:35:21;13.70;99.90
13472;DHT22;6808;49.444;11.034;2024-02-16T13:37:47;13.80;99.90
13472;DHT22;6808;49.444;11.034;2024-02-16T13:40:13;13.80;99.90
13472;DHT22;6808;49.444;11.034;2024-02-16T13:42:39;13.80;99.90
13472;DHT22;6808;49.444;11.034;2024-02-16T13:45:06;13.80;99.90
13472;DHT22;6808;49.444;11.034;2024-02-16T13:47:31;13.80;99.90
13472;DHT22;6808;49.444;11.034;2024-02-16T13:49:57;13.70;99.90
13472;DHT22;6808;49.444;11.034;2024-02-16T13:52:24;13.70;99.90
13472;DHT22;6808;49.444;11.034;2024-02-16T13:54:50;13.70;99.90
13472;DHT22;6808;49.444;11.034;2024-02-16T13:57:15;13.70;99.90
13472;DHT22;6808;49.444;11.034;2024-02-16T13:59:42;13.70;99.90
13472;DHT22;6808;49.444;11.034;2024-02-16T14:02:14;13.60;99.90
13472;DHT22;6808;49.444;11.034;2024-02-16T14:04:39;13.70;99.90
13472;DHT22;6808;49.444;11.034;2024-02-16T14:07:05;13.70;99.90
13472;DHT22;6808;49.444;11.034;2024-02-16T14:09:31;13.70;99.90
13472;DHT22;6808;49.444;11.034;2024-02-16T14:11:56;13.60;99.90
13472;DHT22;6808;49.444;11.034;2024-02-16T14:14:27;13.60;99.90
13472;DHT22;6808;49.444;11.034;2024-02-16T14:16:54;13.60;99.90
13472;DHT22;6808;49.444;11.034;2024-02-16T14:19:19;13.60;99.90
13472;DHT22;6808;49.444;11.034;2024-02-16T14:21:45;13.70;99.90
13472;DHT22;6808;49.444;11.034;2024-02-16T14:24:14;13.70;99.90
13472;DHT22;6808;49.444;11.034;2024-02-16T14:26:43;13.70;99.90
13472;DHT22;6808;49.444;11.034;2024-02-16T14:29:10;13.70;99.90
13472;DHT22;6808;49.444;11.034;2024-02-16T14:31:36;13.60;99.90
13472;DHT22;6808;49.444;11.034;2024-02-16T14:34:01;13.60;99.90
13472;DHT22;6808;49.444;11.034;2024-02-16T14:36:27;13.60;99.90
13472;DHT22;6808;49.444;11.034;2024-02-16T14:38:55;13.60;99.90
13472;DHT22;6808;49.444;11.034;2024-02-16T14:41:21;13.60;99.90
13472;DHT22;6808;49.444;11.034;2024-02-16T14:43:47;13.50;99.90
13472;DHT22;6808;49.444;11.034;2024-02-16T14:46:13;13.50;99.90
13472;DHT22;6808;49.444;11.034;2024-02-16T14:48:41;13.40;99.90
13472;DHT22;6808;49.444;11.034;2024-02-16T14:51:07;13.40;99.90
13472;DHT22;6808;49.444;11.034;2024-02-16T14:53:33;13.30;99.90
13472;DHT22;6808;49.444;11.034;2024-02-16T14:56:00;13.40;99.90
13472;DHT22;6808;49.444;11.034;2024-02-16T14:58:25;13.30;99.90
13472;DHT22;6808;49.444;11.034;2024-02-16T15:00:51;13.30;99.90
13472;DHT22;6808;49.444;11.034;2024-02-16T15:03:16;13.30;99.90
13472;DHT22;6808;49.444;11.034;2024-02-16T15:05:44;13.20;99.90
13472;DHT22;6808;49.444;11.034;2024-02-16T15:08:10;13.20;99.90
13472;DHT22;6808;49.444;11.034;2024-02-16T15:10:35;13.20;99.90
13472;DHT22;6808;49.444;11.034;2024-02-16T15:13:01;13.20;99.90
13472;DHT22;6808;49.444;11.034;2024-02-16T15:15:26;13.20;99.90
13472;DHT22;6808;49.444;11.034;2024-02-16T15:17:53;13.10;99.90
13472;DHT22;6808;49.444;11.034;2024-02-16T15:20:18;13.10;99.90
13472;DHT22;6808;49.444;11.034;2024-02-16T15:22:47;13.10;99.90
13472;DHT22;6808;49.444;11.034;2024-02-16T15:25:13;13.10;99.90
13472;DHT22;6808;49.444;11.034;2024-02-16T15:27:38;13.10;99.90
13472;DHT22;6808;49.444;11.034;2024-02-16T15:30:04;13.00;99.90
13472;DHT22;6808;49.444;11.034;2024-02-16T15:32:30;13.00;99.90
13472;DHT22;6808;49.444;11.034;2024-02-16T15:34:57;13.00;99.90